createdAt,value
2018-03-01T00:00:20.044Z,85.17
2018-03-01T00:01:19.907Z,85.75
2018-03-01T00:02:19.864Z,85.55
2018-03-01T00:03:19.871Z,85.94
2018-03-01T00:04:19.905Z,86.58
2018-03-01T00:05:20.108Z,87.45
2018-03-01T00:06:20.305Z,87.93
2018-03-01T00:07:19.762Z,87.93
2018-03-01T00:08:19.738Z,88.61
2018-03-01T00:09:19.768Z,89.29
2018-03-01T00:10:19.747Z,89.39
2018-03-01T00:11:19.758Z,89.29
2018-03-01T00:12:19.662Z,89.68
2018-03-01T00:13:21.253Z,89.77
2018-03-01T00:14:19.598Z,89.58
2018-03-01T00:15:19.555Z,90.36
2018-03-01T00:16:19.651Z,90.16
2018-03-01T00:17:19.512Z,90.45
2018-03-01T00:18:19.497Z,91.18
2018-03-01T00:19:19.622Z,91.22
2018-03-01T00:20:19.447Z,91.38
2018-03-01T00:21:19.433Z,91.42
2018-03-01T00:22:20.117Z,91.96
2018-03-01T00:23:19.423Z,92.15
2018-03-01T00:25:20.628Z,92.93
2018-03-01T00:26:20.983Z,93.41
2018-03-01T00:27:19.276Z,93.51
2018-03-01T00:28:19.449Z,93.79
2018-03-01T00:29:19.243Z,93.51
2018-03-01T00:30:19.209Z,94.23
2018-03-01T00:31:19.251Z,94.52
2018-03-01T00:32:19.248Z,94.13
2018-03-01T00:33:19.322Z,95.10
2018-03-01T00:34:19.098Z,94.91
2018-03-01T00:35:19.091Z,95.59
2018-03-01T00:36:19.072Z,95.68
2018-03-01T00:37:19.027Z,95.68
2018-03-01T00:38:19.294Z,95.68
2018-03-01T00:39:18.997Z,95.59
2018-03-01T00:40:18.953Z,96.55
2018-03-01T00:41:19.693Z,96.36
2018-03-01T00:42:19.458Z,96.55
2018-03-01T00:43:19.698Z,97.52
2018-03-01T00:44:19.404Z,97.18
2018-03-01T00:45:18.830Z,97.04
2018-03-01T00:46:18.805Z,97.57
2018-03-01T00:47:18.788Z,97.57
2018-03-01T00:48:18.792Z,97.67
2018-03-01T00:49:18.957Z,98.54
2018-03-01T00:50:18.704Z,97.96
2018-03-01T00:51:18.685Z,98.44
2018-03-01T00:52:18.638Z,99.02
2018-03-01T00:53:18.646Z,98.73
2018-03-01T00:54:18.803Z,98.93
2018-03-01T00:55:19.160Z,98.73
2018-03-01T00:56:18.542Z,98.73
2018-03-01T00:57:18.528Z,99.11
2018-03-01T00:58:18.551Z,99.11
2018-03-01T00:59:18.702Z,99.99
2018-03-01T01:00:18.472Z,99.51
2018-03-01T01:01:18.973Z,99.51
2018-03-01T01:02:18.522Z,99.51
2018-03-01T01:03:18.425Z,99.41
2018-03-01T01:04:18.370Z,99.55
2018-03-01T01:05:18.526Z,99.41
2018-03-01T01:06:18.375Z,99.74
2018-03-01T01:07:18.338Z,99.46
2018-03-01T01:08:18.497Z,99.36
2018-03-01T01:09:18.208Z,99.36
2018-03-01T01:10:18.198Z,99.99
2018-03-01T01:11:18.382Z,99.99
2018-03-01T01:12:18.630Z,99.99
2018-03-01T01:13:18.167Z,99.99
2018-03-01T01:14:18.072Z,99.99
2018-03-01T01:15:18.070Z,99.99
2018-03-01T01:16:18.758Z,99.99
2018-03-01T01:17:17.992Z,99.99
2018-03-01T01:18:17.995Z,99.99
2018-03-01T01:19:17.968Z,99.99
2018-03-01T01:20:18.487Z,99.99
2018-03-01T01:21:17.956Z,99.99
2018-03-01T01:22:18.664Z,99.99
2018-03-01T01:23:17.846Z,99.99
2018-03-01T01:24:17.930Z,99.99
2018-03-01T01:25:18.305Z,99.99
2018-03-01T01:26:17.770Z,99.99
2018-03-01T01:27:17.836Z,99.99
2018-03-01T01:28:17.931Z,99.99
2018-03-01T01:29:18.225Z,99.99
2018-03-01T01:30:18.239Z,99.99
2018-03-01T01:31:17.733Z,99.99
2018-03-01T01:32:18.191Z,99.99
2018-03-01T01:33:18.329Z,99.99
2018-03-01T01:34:17.575Z,99.99
2018-03-01T01:35:17.585Z,99.99
2018-03-01T01:36:17.601Z,99.99
2018-03-01T01:37:18.124Z,99.99
2018-03-01T01:38:17.554Z,99.99
2018-03-01T01:39:18.189Z,99.99
2018-03-01T01:40:17.480Z,99.99
2018-03-01T01:41:17.896Z,99.99
2018-03-01T01:42:17.864Z,99.99
2018-03-01T01:43:18.050Z,99.99
2018-03-01T01:44:17.883Z,99.99
2018-03-01T01:45:18.013Z,99.99
2018-03-01T01:46:17.289Z,99.99
2018-03-01T01:47:17.275Z,99.99
2018-03-01T01:48:17.227Z,99.99
2018-03-01T01:49:17.205Z,99.99
2018-03-01T01:50:17.680Z,99.99
2018-03-01T01:51:18.099Z,99.99
2018-03-01T01:52:18.030Z,99.99
2018-03-01T01:53:17.574Z,99.99
2018-03-01T01:54:17.574Z,99.99
2018-03-01T01:55:17.296Z,99.99
2018-03-01T01:56:17.601Z,99.99
2018-03-01T01:57:16.990Z,99.99
2018-03-01T01:58:16.974Z,99.99
2018-03-01T01:59:17.459Z,99.99
2018-03-01T02:00:17.463Z,99.99
2018-03-01T02:01:17.387Z,99.99
2018-03-01T02:02:17.376Z,99.99
2018-03-01T02:03:16.850Z,99.99
2018-03-01T02:04:16.822Z,99.99
2018-03-01T02:05:16.872Z,99.99
2018-03-01T02:06:17.555Z,99.99
2018-03-01T02:07:16.782Z,99.99
2018-03-01T02:08:16.767Z,99.99
2018-03-01T02:09:17.272Z,99.99
2018-03-01T02:10:17.268Z,99.99
2018-03-01T02:11:17.032Z,99.99
2018-03-01T02:12:17.138Z,99.99
2018-03-01T02:13:16.726Z,99.99
2018-03-01T02:14:16.615Z,99.99
2018-03-01T02:15:16.619Z,99.99
2018-03-01T02:16:16.768Z,99.99
2018-03-01T02:17:16.465Z,99.99
2018-03-01T02:18:16.838Z,99.99
2018-03-01T02:19:16.953Z,99.99
2018-03-01T02:20:16.505Z,99.99
2018-03-01T02:21:16.956Z,99.99
2018-03-01T02:22:16.524Z,99.99
2018-03-01T02:23:16.858Z,99.99
2018-03-01T02:24:16.404Z,99.99
2018-03-01T02:25:17.043Z,99.99
2018-03-01T02:26:16.795Z,99.99
2018-03-01T02:27:16.204Z,99.99
2018-03-01T02:28:16.576Z,99.99
2018-03-01T02:29:16.189Z,99.99
2018-03-01T02:30:16.816Z,99.99
2018-03-01T02:31:16.321Z,99.99
2018-03-01T02:32:16.684Z,99.99
2018-03-01T02:33:16.611Z,99.99
2018-03-01T02:34:16.977Z,99.99
2018-03-01T02:35:15.986Z,99.99
2018-03-01T02:36:16.476Z,99.99
2018-03-01T02:37:17.673Z,99.99
2018-03-01T02:38:15.949Z,99.99
2018-03-01T02:39:15.893Z,99.99
2018-03-01T02:40:16.496Z,99.99
2018-03-01T02:41:16.463Z,99.99
2018-03-01T02:42:15.841Z,99.99
2018-03-01T02:43:15.855Z,99.99
2018-03-01T02:44:15.912Z,99.99
2018-03-01T02:45:16.070Z,99.99
2018-03-01T02:46:15.678Z,99.99
2018-03-01T02:47:15.683Z,99.99
2018-03-01T02:48:16.341Z,99.99
2018-03-01T02:49:15.610Z,99.99
2018-03-01T02:50:16.269Z,99.99
2018-03-01T02:51:16.066Z,99.99
2018-03-01T02:52:15.545Z,99.99
2018-03-01T02:53:15.627Z,99.99
2018-03-01T02:54:15.544Z,99.99
2018-03-01T02:55:15.520Z,99.99
2018-03-01T02:56:16.242Z,99.99
2018-03-01T02:57:15.492Z,99.99
2018-03-01T02:58:15.355Z,99.99
2018-03-01T02:59:15.387Z,99.99
2018-03-01T03:00:15.327Z,99.99
2018-03-01T03:01:15.287Z,99.99
2018-03-01T03:02:15.551Z,99.99
2018-03-01T03:03:15.863Z,99.99
2018-03-01T03:04:15.329Z,99.99
2018-03-01T03:05:15.766Z,99.99
2018-03-01T03:06:15.226Z,99.99
2018-03-01T03:07:15.143Z,99.99
2018-03-01T03:08:15.338Z,99.99
2018-03-01T03:09:15.235Z,99.99
2018-03-01T03:10:15.717Z,99.99
2018-03-01T03:11:15.026Z,99.99
2018-03-01T03:12:15.084Z,99.99
2018-03-01T03:13:15.030Z,99.99
2018-03-01T03:14:15.241Z,99.99
2018-03-01T03:15:14.898Z,99.99
2018-03-01T03:16:14.902Z,99.99
2018-03-01T03:17:15.076Z,99.99
2018-03-01T03:18:14.901Z,99.99
2018-03-01T03:19:15.716Z,99.99
2018-03-01T03:20:14.906Z,99.99
2018-03-01T03:21:14.893Z,99.99
2018-03-01T03:22:14.907Z,99.99
2018-03-01T03:23:14.757Z,99.99
2018-03-01T03:24:14.952Z,99.99
2018-03-01T03:25:15.118Z,99.99
2018-03-01T03:26:14.627Z,99.99
2018-03-01T03:27:14.627Z,99.99
2018-03-01T03:28:14.576Z,99.99
2018-03-01T03:29:14.733Z,99.99
2018-03-01T03:30:14.508Z,99.99
2018-03-01T03:31:14.493Z,99.99
2018-03-01T03:32:14.476Z,99.99
2018-03-01T03:33:14.437Z,99.99
2018-03-01T03:34:14.416Z,99.99
2018-03-01T03:35:14.634Z,99.99
2018-03-01T03:36:14.359Z,99.99
2018-03-01T03:37:14.350Z,99.99
2018-03-01T03:38:14.365Z,99.99
2018-03-01T03:39:14.341Z,99.99
2018-03-01T03:40:14.251Z,99.99
2018-03-01T03:41:14.418Z,99.99
2018-03-01T03:42:14.191Z,99.99
2018-03-01T03:43:14.163Z,99.99
2018-03-01T03:44:14.130Z,99.99
2018-03-01T03:45:14.111Z,99.99
2018-03-01T03:46:14.137Z,99.99
2018-03-01T03:47:14.281Z,99.99
2018-03-01T03:48:14.110Z,99.99
2018-03-01T03:49:14.532Z,99.99
2018-03-01T03:50:14.089Z,99.99
2018-03-01T03:51:13.940Z,99.99
2018-03-01T03:52:14.204Z,99.99
2018-03-01T03:53:14.097Z,99.99
2018-03-01T03:54:13.847Z,99.99
2018-03-01T03:55:13.828Z,99.99
2018-03-01T03:56:13.792Z,99.99
2018-03-01T03:57:14.034Z,99.99
2018-03-01T03:58:13.747Z,99.99
2018-03-01T03:59:14.254Z,99.99
2018-03-01T04:00:13.708Z,99.99
2018-03-01T04:01:13.670Z,99.99
2018-03-01T04:02:13.845Z,99.99
2018-03-01T04:03:14.146Z,99.99
2018-03-01T04:04:13.586Z,99.99
2018-03-01T04:05:13.562Z,99.99
2018-03-01T04:06:13.584Z,99.99
2018-03-01T04:07:14.408Z,99.99
2018-03-01T04:08:13.554Z,99.99
2018-03-01T04:09:13.559Z,99.99
2018-03-01T04:10:13.439Z,99.99
2018-03-01T04:11:13.633Z,99.99
2018-03-01T04:12:13.415Z,99.99
2018-03-01T04:13:13.795Z,99.99
2018-03-01T04:14:13.333Z,99.99
2018-03-01T04:15:13.464Z,99.99
2018-03-01T04:16:13.377Z,99.99
2018-03-01T04:17:13.223Z,99.99
2018-03-01T04:18:13.241Z,99.99
2018-03-01T04:19:13.473Z,99.99
2018-03-01T04:20:13.255Z,99.99
2018-03-01T04:21:13.172Z,99.99
2018-03-01T04:22:13.104Z,99.99
2018-03-01T04:23:13.223Z,99.99
2018-03-01T04:24:13.416Z,99.99
2018-03-01T04:25:13.170Z,99.99
2018-03-01T04:26:13.039Z,99.99
2018-03-01T04:27:13.040Z,99.99
2018-03-01T04:28:13.008Z,99.99
2018-03-01T04:29:13.093Z,99.99
2018-03-01T04:30:12.926Z,99.99
2018-03-01T04:31:12.909Z,99.99
2018-03-01T04:32:12.826Z,99.99
2018-03-01T04:33:12.849Z,99.99
2018-03-01T04:34:13.101Z,99.99
2018-03-01T04:35:12.773Z,99.99
2018-03-01T04:36:12.764Z,99.99
2018-03-01T04:37:12.705Z,99.99
2018-03-01T04:38:12.664Z,99.99
2018-03-01T04:39:12.903Z,99.99
2018-03-01T04:40:12.678Z,99.99
2018-03-01T04:41:12.658Z,99.99
2018-03-01T04:42:12.577Z,99.99
2018-03-01T04:43:12.623Z,99.99
2018-03-01T04:44:12.768Z,99.99
2018-03-01T04:45:12.497Z,99.99
2018-03-01T04:46:12.495Z,99.99
2018-03-01T04:47:12.488Z,99.99
2018-03-01T04:48:12.421Z,99.99
2018-03-01T04:49:12.367Z,99.99
2018-03-01T04:50:12.596Z,99.99
2018-03-01T04:51:12.365Z,99.99
2018-03-01T04:52:12.440Z,99.99
2018-03-01T04:53:12.334Z,99.99
2018-03-01T04:54:12.362Z,99.99
2018-03-01T04:55:12.207Z,99.99
2018-03-01T04:56:12.360Z,99.99
2018-03-01T04:57:12.141Z,99.99
2018-03-01T04:58:12.169Z,99.99
2018-03-01T04:59:12.169Z,99.99
2018-03-01T05:00:12.048Z,99.99
2018-03-01T05:01:12.237Z,99.99
2018-03-01T05:02:12.026Z,99.99
2018-03-01T05:03:11.986Z,99.99
2018-03-01T05:04:12.036Z,99.99
2018-03-01T05:05:11.982Z,99.99
2018-03-01T05:06:12.219Z,99.99
2018-03-01T05:07:11.900Z,99.99
2018-03-01T05:08:11.887Z,99.99
2018-03-01T05:09:11.824Z,99.99
2018-03-01T05:10:11.771Z,99.99
2018-03-01T05:11:11.961Z,99.99
2018-03-01T05:12:11.737Z,99.99
2018-03-01T05:13:11.709Z,99.99
2018-03-01T05:14:11.661Z,99.99
2018-03-01T05:15:11.655Z,99.69
2018-03-01T05:16:11.827Z,99.88
2018-03-01T05:17:11.600Z,99.99
2018-03-01T05:18:11.562Z,99.40
2018-03-01T05:19:11.526Z,99.21
2018-03-01T05:20:11.519Z,99.21
2018-03-01T05:21:11.542Z,99.11
2018-03-01T05:22:11.664Z,99.60
2018-03-01T05:23:11.492Z,99.99
2018-03-01T05:24:11.405Z,99.99
2018-03-01T05:25:11.366Z,99.99
2018-03-01T05:26:11.347Z,99.99
2018-03-01T05:27:11.331Z,99.99
2018-03-01T05:28:11.510Z,99.99
2018-03-01T05:29:11.330Z,99.99
2018-03-01T05:30:11.234Z,99.99
2018-03-01T05:31:11.206Z,99.99
2018-03-01T05:32:11.186Z,99.99
2018-03-01T05:33:11.147Z,99.99
2018-03-01T05:34:11.426Z,99.99
2018-03-01T05:35:11.113Z,99.99
2018-03-01T05:36:11.083Z,99.99
2018-03-01T05:37:11.045Z,99.99
2018-03-01T05:38:11.088Z,99.99
2018-03-01T05:39:11.326Z,99.99
2018-03-01T05:40:11.037Z,99.99
2018-03-01T05:41:10.978Z,99.69
2018-03-01T05:42:10.998Z,99.99
2018-03-01T05:43:10.942Z,99.74
2018-03-01T05:44:11.179Z,99.99
2018-03-01T05:45:10.932Z,99.99
2018-03-01T05:46:10.843Z,99.45
2018-03-01T05:47:10.807Z,99.36
2018-03-01T05:48:10.803Z,99.16
2018-03-01T05:49:10.939Z,99.45
2018-03-01T05:50:10.702Z,99.99
2018-03-01T05:51:10.720Z,99.07
2018-03-01T05:52:10.640Z,99.26
2018-03-01T05:53:10.609Z,98.73
2018-03-01T05:54:10.636Z,98.39
2018-03-01T05:55:10.748Z,98.63
2018-03-01T05:56:10.562Z,98.93
2018-03-01T05:57:10.514Z,98.93
2018-03-01T05:58:10.630Z,98.83
2018-03-01T05:59:10.453Z,98.88
2018-03-01T06:00:10.510Z,98.25
2018-03-01T06:01:10.653Z,99.55
2018-03-01T06:02:11.253Z,99.65
2018-03-01T06:03:10.382Z,99.99
2018-03-01T06:04:10.498Z,99.74
2018-03-01T06:05:10.473Z,99.36
2018-03-01T06:06:10.385Z,99.36
2018-03-01T06:07:10.542Z,98.88
2018-03-01T06:08:10.351Z,98.39
2018-03-01T06:09:10.208Z,98.15
2018-03-01T06:10:10.217Z,97.77
2018-03-01T06:11:10.382Z,98.83
2018-03-01T06:12:10.224Z,99.21
2018-03-01T06:13:10.496Z,99.84
2018-03-01T06:14:10.143Z,99.11
2018-03-01T06:15:10.130Z,98.10
2018-03-01T06:16:10.073Z,98.10
2018-03-01T06:17:09.992Z,97.72
2018-03-01T06:18:10.246Z,98.78
2018-03-01T06:19:10.010Z,98.88
2018-03-01T06:20:09.919Z,98.39
2018-03-01T06:21:09.984Z,98.00
2018-03-01T06:22:09.987Z,99.84
2018-03-01T06:23:10.010Z,98.58
2018-03-01T06:24:09.875Z,99.26
2018-03-01T06:25:09.869Z,99.99
2018-03-01T06:26:09.925Z,99.36
2018-03-01T06:27:09.769Z,98.78
2018-03-01T06:28:09.710Z,98.68
2018-03-01T06:29:09.915Z,98.97
2018-03-01T06:30:09.684Z,98.78
2018-03-01T06:31:09.623Z,98.58
2018-03-01T06:32:09.722Z,98.88
2018-03-01T06:33:09.690Z,97.81
2018-03-01T06:34:09.613Z,98.25
2018-03-01T06:35:09.722Z,97.62
2018-03-01T06:36:09.526Z,97.81
2018-03-01T06:37:09.581Z,98.15
2018-03-01T06:38:09.436Z,98.58
2018-03-01T06:39:09.473Z,99.69
2018-03-01T06:40:09.431Z,98.00
2018-03-01T06:41:09.744Z,99.65
2018-03-01T06:42:09.432Z,98.97
2018-03-01T06:43:09.308Z,98.10
2018-03-01T06:44:09.334Z,97.91
2018-03-01T06:45:09.257Z,99.36
2018-03-01T06:46:09.291Z,98.68
2018-03-01T06:47:09.430Z,98.00
2018-03-01T06:48:09.236Z,98.88
2018-03-01T06:49:09.217Z,98.88
2018-03-01T06:50:09.171Z,99.99
2018-03-01T06:51:09.057Z,99.94
2018-03-01T06:52:09.203Z,99.40
2018-03-01T06:53:09.509Z,99.16
2018-03-01T06:54:09.264Z,97.81
2018-03-01T06:55:08.935Z,98.58
2018-03-01T06:56:08.911Z,98.88
2018-03-01T06:57:09.066Z,98.78
2018-03-01T06:58:08.915Z,99.84
2018-03-01T06:59:08.896Z,99.07
2018-03-01T07:00:08.794Z,98.78
2018-03-01T07:01:08.757Z,99.45
2018-03-01T07:02:08.795Z,98.54
2018-03-01T07:03:08.907Z,99.26
2018-03-01T07:04:08.694Z,98.78
2018-03-01T07:05:08.674Z,98.39
2018-03-01T07:06:08.636Z,98.00
2018-03-01T07:07:08.597Z,99.16
2018-03-01T07:08:08.724Z,99.50
2018-03-01T07:09:08.794Z,99.60
2018-03-01T07:10:08.515Z,98.83
2018-03-01T07:11:08.543Z,99.40
2018-03-01T07:12:08.476Z,99.11
2018-03-01T07:13:08.737Z,99.11
2018-03-01T07:14:08.654Z,99.99
2018-03-01T07:15:08.920Z,98.15
2018-03-01T07:16:08.524Z,97.57
2018-03-01T07:17:08.357Z,98.83
2018-03-01T07:18:08.493Z,98.44
2018-03-01T07:19:08.452Z,98.05
2018-03-01T07:20:08.440Z,99.98
2018-03-01T07:21:08.612Z,99.99
2018-03-01T07:22:08.501Z,99.99
2018-03-01T07:23:08.216Z,98.73
2018-03-01T07:24:08.259Z,99.02
2018-03-01T07:25:08.252Z,98.73
2018-03-01T07:26:08.313Z,97.67
2018-03-01T07:27:08.416Z,96.12
2018-03-01T07:28:08.162Z,95.25
2018-03-01T07:29:08.051Z,93.13
2018-03-01T07:30:08.006Z,94.92
2018-03-01T07:31:07.956Z,92.94
2018-03-01T07:32:08.203Z,95.40
2018-03-01T07:33:07.948Z,93.85
2018-03-01T07:34:07.903Z,94.68
2018-03-01T07:35:07.837Z,93.42
2018-03-01T07:36:07.941Z,93.80
2018-03-01T07:37:07.925Z,93.80
2018-03-01T07:38:07.984Z,94.68
2018-03-01T07:39:07.802Z,94.38
2018-03-01T07:40:07.765Z,92.84
2018-03-01T07:41:07.669Z,93.71
2018-03-01T07:42:07.635Z,94.20
2018-03-01T07:43:07.629Z,94.29
2018-03-01T07:44:07.800Z,94.00
2018-03-01T07:45:07.628Z,94.48
2018-03-01T07:46:07.684Z,92.50
2018-03-01T07:47:07.508Z,92.41
2018-03-01T07:48:07.485Z,92.65
2018-03-01T07:49:07.609Z,91.49
2018-03-01T07:50:07.506Z,91.01
2018-03-01T07:51:07.936Z,93.32
2018-03-01T07:52:07.375Z,91.30
2018-03-01T07:53:07.355Z,90.81
2018-03-01T07:54:07.326Z,90.33
2018-03-01T07:55:07.490Z,91.01
2018-03-01T07:56:07.272Z,91.11
2018-03-01T07:57:07.235Z,90.43
2018-03-01T07:58:07.220Z,91.49
2018-03-01T07:59:07.177Z,90.14
2018-03-01T08:00:07.146Z,90.05
2018-03-01T08:01:07.338Z,89.75
2018-03-01T08:02:07.085Z,90.33
2018-03-01T08:03:07.071Z,91.39
2018-03-01T08:04:07.058Z,90.53
2018-03-01T08:05:07.029Z,91.68
2018-03-01T08:06:07.187Z,92.99
2018-03-01T08:07:06.965Z,95.98
2018-03-01T08:08:06.941Z,95.31
2018-03-01T08:09:06.903Z,95.11
2018-03-01T08:10:06.893Z,95.93
2018-03-01T08:11:06.852Z,94.96
2018-03-01T08:12:07.029Z,94.87
2018-03-01T08:13:06.811Z,94.96
2018-03-01T08:14:06.774Z,97.38
2018-03-01T08:15:06.752Z,96.80
2018-03-01T08:16:06.719Z,95.45
2018-03-01T08:17:06.685Z,95.54
2018-03-01T08:18:06.860Z,96.41
2018-03-01T08:19:06.644Z,96.32
2018-03-01T08:20:06.598Z,98.63
2018-03-01T08:21:06.587Z,96.89
2018-03-01T08:22:06.552Z,96.70
2018-03-01T08:23:06.734Z,97.86
2018-03-01T08:24:06.489Z,97.14
2018-03-01T08:25:06.467Z,96.89
2018-03-01T08:26:06.439Z,98.05
2018-03-01T08:27:06.417Z,97.09
2018-03-01T08:28:06.405Z,96.41
2018-03-01T08:29:06.546Z,96.70
2018-03-01T08:30:06.337Z,95.45
2018-03-01T08:31:06.304Z,94.29
2018-03-01T08:32:06.264Z,94.43
2018-03-01T08:33:06.259Z,93.57
2018-03-01T08:34:06.215Z,93.37
2018-03-01T08:35:06.391Z,93.57
2018-03-01T08:36:06.154Z,93.47
2018-03-01T08:37:06.131Z,92.80
2018-03-01T08:38:06.117Z,92.60
2018-03-01T08:39:06.080Z,93.13
2018-03-01T08:40:06.295Z,93.13
2018-03-01T08:41:06.035Z,91.20
2018-03-01T08:42:05.994Z,91.59
2018-03-01T08:43:06.021Z,91.30
2018-03-01T08:44:05.954Z,93.23
2018-03-01T08:45:05.952Z,91.49
2018-03-01T08:46:06.132Z,91.39
2018-03-01T08:47:06.110Z,90.62
2018-03-01T08:48:05.879Z,90.43
2018-03-01T08:49:05.957Z,90.23
2018-03-01T08:50:05.789Z,90.53
2018-03-01T08:51:05.788Z,90.43
2018-03-01T08:52:06.053Z,90.72
2018-03-01T08:53:05.804Z,90.62
2018-03-01T08:54:05.706Z,90.14
2018-03-01T08:55:05.715Z,89.51
2018-03-01T08:56:05.803Z,90.23
2018-03-01T08:57:05.946Z,90.23
2018-03-01T08:58:06.168Z,89.12
2018-03-01T08:59:05.540Z,89.79
2018-03-01T09:00:05.621Z,90.09
2018-03-01T09:01:05.627Z,91.63
2018-03-01T09:02:05.600Z,88.73
2018-03-01T09:03:05.944Z,89.12
2018-03-01T09:04:05.465Z,89.51
2018-03-01T09:05:05.414Z,88.64
2018-03-01T09:06:05.505Z,88.73
2018-03-01T09:07:05.399Z,88.25
2018-03-01T09:08:05.395Z,88.15
2018-03-01T09:09:05.580Z,89.12
2018-03-01T09:10:05.268Z,89.22
2018-03-01T09:11:05.197Z,88.06
2018-03-01T09:12:05.265Z,88.45
2018-03-01T09:13:05.132Z,88.35
2018-03-01T09:14:05.218Z,88.06
2018-03-01T09:15:05.559Z,88.83
2018-03-01T09:16:05.294Z,89.03
2018-03-01T09:17:05.225Z,88.83
2018-03-01T09:18:05.119Z,88.06
2018-03-01T09:19:05.197Z,88.73
2018-03-01T09:20:05.185Z,89.31
2018-03-01T09:21:05.117Z,89.61
2018-03-01T09:22:05.011Z,89.12
2018-03-01T09:23:05.058Z,90.43
2018-03-01T09:24:05.044Z,89.27
2018-03-01T09:25:05.061Z,88.89
2018-03-01T09:26:05.242Z,88.64
2018-03-01T09:27:04.949Z,89.03
2018-03-01T09:28:04.855Z,88.54
2018-03-01T09:29:04.896Z,87.38
2018-03-01T09:30:04.825Z,87.19
2018-03-01T09:31:04.845Z,86.52
2018-03-01T09:32:04.626Z,87.09
2018-03-01T09:33:04.591Z,86.52
2018-03-01T09:34:04.604Z,86.42
2018-03-01T09:35:04.550Z,86.27
2018-03-01T09:36:04.773Z,85.45
2018-03-01T09:37:04.473Z,86.17
2018-03-01T09:38:04.456Z,86.36
2018-03-01T09:39:04.433Z,85.40
2018-03-01T09:40:04.393Z,85.78
2018-03-01T09:41:04.367Z,85.01
2018-03-01T09:42:04.545Z,85.16
2018-03-01T09:43:04.333Z,85.49
2018-03-01T09:44:04.289Z,85.69
2018-03-01T09:45:04.257Z,85.59
2018-03-01T09:46:04.313Z,86.32
2018-03-01T09:47:04.224Z,86.80
2018-03-01T09:48:04.386Z,85.26
2018-03-01T09:49:04.166Z,85.64
2018-03-01T09:50:04.133Z,86.22
2018-03-01T09:51:04.100Z,86.52
2018-03-01T09:52:04.198Z,86.13
2018-03-01T09:53:04.056Z,86.61
2018-03-01T09:54:04.209Z,86.61
2018-03-01T09:55:03.990Z,88.54
2018-03-01T09:56:03.981Z,87.82
2018-03-01T09:57:03.941Z,87.77
2018-03-01T09:58:03.966Z,88.31
2018-03-01T09:59:04.080Z,88.59
2018-03-01T10:00:03.878Z,88.98
2018-03-01T10:01:03.875Z,89.47
2018-03-01T10:02:03.808Z,88.79
2018-03-01T10:03:03.770Z,88.89
2018-03-01T10:04:03.942Z,89.27
2018-03-01T10:05:03.719Z,89.37
2018-03-01T10:06:03.682Z,88.89
2018-03-01T10:07:03.669Z,88.21
2018-03-01T10:08:03.756Z,88.02
2018-03-01T10:09:03.754Z,88.69
2018-03-01T10:10:03.599Z,88.89
2018-03-01T10:11:03.570Z,88.59
2018-03-01T10:12:03.533Z,88.50
2018-03-01T10:13:03.506Z,87.63
2018-03-01T10:14:03.672Z,88.59
2018-03-01T10:15:03.459Z,87.73
2018-03-01T10:16:03.634Z,87.82
2018-03-01T10:17:03.493Z,88.98
2018-03-01T10:18:03.459Z,87.15
2018-03-01T10:19:03.378Z,87.15
2018-03-01T10:20:03.549Z,87.67
2018-03-01T10:21:03.339Z,87.48
2018-03-01T10:22:03.488Z,87.15
2018-03-01T10:23:03.229Z,87.34
2018-03-01T10:24:03.224Z,88.11
2018-03-01T10:25:03.266Z,88.79
2018-03-01T10:26:03.410Z,90.33
2018-03-01T10:27:03.255Z,88.11
2018-03-01T10:28:03.143Z,89.37
2018-03-01T10:29:03.108Z,89.17
2018-03-01T10:30:03.072Z,88.21
2018-03-01T10:31:03.126Z,88.59
2018-03-01T10:32:03.201Z,88.31
2018-03-01T10:33:02.997Z,88.65
2018-03-01T10:34:02.938Z,88.21
2018-03-01T10:35:02.936Z,87.92
2018-03-01T10:36:02.935Z,87.34
2018-03-01T10:37:03.105Z,87.05
2018-03-01T10:38:02.884Z,88.31
2018-03-01T10:39:02.779Z,86.38
2018-03-01T10:40:02.784Z,86.18
2018-03-01T10:41:02.752Z,87.73
2018-03-01T10:42:03.439Z,88.11
2018-03-01T10:43:02.683Z,86.08
2018-03-01T10:44:02.652Z,85.50
2018-03-01T10:45:02.637Z,86.08
2018-03-01T10:46:02.604Z,86.76
2018-03-01T10:47:02.771Z,88.40
2018-03-01T10:48:02.558Z,87.53
2018-03-01T10:49:02.519Z,88.40
2018-03-01T10:50:02.475Z,87.92
2018-03-01T10:51:02.455Z,87.34
2018-03-01T10:52:02.502Z,86.57
2018-03-01T10:53:02.594Z,86.76
2018-03-01T10:54:02.402Z,86.96
2018-03-01T10:55:02.375Z,85.70
2018-03-01T10:56:02.550Z,84.88
2018-03-01T10:57:03.500Z,84.68
2018-03-01T10:58:02.276Z,85.31
2018-03-01T10:59:02.454Z,85.60
2018-03-01T11:00:02.211Z,85.50
2018-03-01T11:01:02.237Z,85.50
2018-03-01T11:02:02.175Z,86.47
2018-03-01T11:03:02.157Z,85.41
2018-03-01T11:04:02.104Z,85.50
2018-03-01T11:05:02.267Z,85.99
2018-03-01T11:06:02.062Z,85.70
2018-03-01T11:07:02.032Z,84.64
2018-03-01T11:08:01.999Z,86.47
2018-03-01T11:09:02.040Z,85.70
2018-03-01T11:10:02.170Z,86.28
2018-03-01T11:11:01.909Z,84.48
2018-03-01T11:12:01.879Z,83.96
2018-03-01T11:13:01.900Z,85.41
2018-03-01T11:14:01.868Z,84.68
2018-03-01T11:15:02.035Z,85.16
2018-03-01T11:16:01.759Z,85.22
2018-03-01T11:17:01.745Z,84.16
2018-03-01T11:18:01.829Z,83.91
2018-03-01T11:19:01.703Z,84.39
2018-03-01T11:20:01.866Z,83.14
2018-03-01T11:21:01.639Z,84.39
2018-03-01T11:22:01.657Z,83.33
2018-03-01T11:23:01.596Z,83.72
2018-03-01T11:24:01.619Z,83.23
2018-03-01T11:25:01.728Z,83.04
2018-03-01T11:26:01.562Z,83.23
2018-03-01T11:27:01.462Z,83.04
2018-03-01T11:28:01.436Z,83.04
2018-03-01T11:29:01.433Z,83.04
2018-03-01T11:30:01.389Z,82.26
2018-03-01T11:31:01.604Z,82.36
2018-03-01T11:32:01.342Z,82.36
2018-03-01T11:33:01.315Z,82.94
2018-03-01T11:34:01.265Z,84.20
2018-03-01T11:35:01.297Z,82.17
2018-03-01T11:36:01.216Z,83.14
2018-03-01T11:37:01.384Z,84.20
2018-03-01T11:38:01.153Z,83.62
2018-03-01T11:39:01.145Z,84.10
2018-03-01T11:40:01.183Z,83.04
2018-03-01T11:41:01.054Z,82.56
2018-03-01T11:42:01.257Z,82.94
2018-03-01T11:43:01.278Z,83.14
2018-03-01T11:44:01.512Z,82.17
2018-03-01T11:45:00.976Z,82.84
2018-03-01T11:46:01.323Z,82.65
2018-03-01T11:47:02.750Z,83.14
2018-03-01T11:48:01.178Z,83.52
2018-03-01T11:49:01.265Z,82.75
2018-03-01T11:50:01.708Z,82.75
2018-03-01T11:51:00.843Z,82.56
2018-03-01T11:52:00.982Z,82.07
2018-03-01T11:53:01.083Z,82.84
2018-03-01T11:54:00.826Z,82.94
2018-03-01T11:55:01.077Z,82.94
2018-03-01T11:56:01.776Z,82.94
2018-03-01T11:57:00.891Z,82.94
2018-03-01T11:58:01.049Z,83.52
2018-03-01T11:59:01.756Z,82.94
2018-03-01T12:00:00.666Z,84.00
2018-03-01T12:01:01.188Z,84.20
2018-03-01T12:02:00.647Z,82.84
2018-03-01T12:03:00.701Z,83.23
2018-03-01T12:04:00.637Z,83.72
2018-03-01T12:05:01.256Z,82.94
2018-03-01T12:06:00.405Z,83.42
2018-03-01T12:07:00.379Z,84.10
2018-03-01T12:08:00.503Z,82.75
2018-03-01T12:09:00.303Z,82.94
2018-03-01T12:10:00.458Z,82.56
2018-03-01T12:11:00.475Z,82.75
2018-03-01T12:12:00.252Z,82.17
2018-03-01T12:13:00.198Z,82.84
2018-03-01T12:14:00.214Z,82.11
2018-03-01T12:15:00.145Z,81.98
2018-03-01T12:16:00.319Z,81.05
2018-03-01T12:17:00.115Z,81.15
2018-03-01T12:18:00.075Z,82.11
2018-03-01T12:19:00.044Z,80.95
2018-03-01T12:20:00.015Z,82.02
2018-03-01T12:20:59.988Z,82.02
2018-03-01T12:22:00.231Z,82.21
2018-03-01T12:22:59.926Z,81.44
2018-03-01T12:23:59.993Z,80.76
2018-03-01T12:25:01.745Z,80.76
2018-03-01T12:26:01.565Z,80.28
2018-03-01T12:27:00.142Z,80.41
2018-03-01T12:28:00.317Z,80.90
2018-03-01T12:29:00.843Z,80.71
2018-03-01T12:30:00.028Z,81.19
2018-03-01T12:30:59.893Z,80.41
2018-03-01T12:31:59.875Z,80.99
2018-03-01T12:32:59.657Z,79.93
2018-03-01T12:33:59.828Z,81.29
2018-03-01T12:34:59.598Z,80.12
2018-03-01T12:35:59.577Z,79.97
2018-03-01T12:36:59.547Z,80.65
2018-03-01T12:37:59.511Z,80.26
2018-03-01T12:38:59.707Z,79.87
2018-03-01T12:39:59.477Z,79.29
2018-03-01T12:40:59.449Z,79.29
2018-03-01T12:41:59.398Z,78.91
2018-03-01T12:42:59.396Z,79.10
2018-03-01T12:43:59.533Z,78.08
2018-03-01T12:44:59.676Z,78.36
2018-03-01T12:45:59.597Z,78.75
2018-03-01T12:46:59.466Z,78.41
2018-03-01T12:47:59.380Z,78.21
2018-03-01T12:48:59.288Z,76.89
2018-03-01T12:49:59.528Z,75.38
2018-03-01T12:50:59.806Z,75.48
2018-03-01T12:51:59.688Z,73.22
2018-03-01T12:52:59.829Z,72.97